Rayford, Texas
Current Conditions -  °F | °C
As of 6:53 AM on Friday 19 Dec 2014 (Local Time) from KIAH Reporting Station
Light Rain Light Rain  
Wind Chill: 57°   Ceiling: 500
Heat Index: 57°   Visibility: 5mi
Dew Point: 57°   Wind: 5mph
Humidity: 100%   Direction: 30°NNE
Pressure: 30.02"   Gusts: NA
Location:  30.0613°N, 95.3841°W
Report Text: KIAH 191253Z 03004KT 5SM -RA BR BKN005 BKN013 OVC034 14/14 A3002 RMK AO2 SLP165 P0004 T01390139
Loading
Personal Weather Stations






























Interactive Weather Map New forecast layout! Learn more

10-Day Weather Forecast

Advertisements
Track Severe Weather on mobile